Time;durP1;ratioP1;P1;durP2;ratioP2;P2;SDS_P1;SDS_P2;PMS_P1;PMS_P2;Temp;Humidity;BMP_temperature;BMP_pressure;BME280_temperature;BME280_humidity;BME280_pressure;Samples;Min_cycle;Max_cycle;Signal;HPM_P1;HPM_P2
2021/07/09 00:01:45;;;;;;;20.60;18.80;;;19.60;99.90;;;;;;5010442;28;20461;-56
2021/07/09 00:04:14;;;;;;;22.53;20.43;;;19.50;99.90;;;;;;5009359;28;20443;-55
2021/07/09 00:06:40;;;;;;;23.17;20.87;;;19.50;99.90;;;;;;5010833;28;20423;-55
2021/07/09 00:09:06;;;;;;;23.30;20.90;;;19.50;99.90;;;;;;5009815;28;20941;-56
2021/07/09 00:11:34;;;;;;;21.60;19.50;;;19.50;99.90;;;;;;5008589;28;20196;-54
2021/07/09 00:14:00;;;;;;;21.50;19.50;;;19.50;99.90;;;;;;5000976;28;20442;-54
2021/07/09 00:16:25;;;;;;;23.20;21.00;;;19.50;99.90;;;;;;5002673;28;20442;-55
2021/07/09 00:18:51;;;;;;;21.73;19.57;;;19.50;99.90;;;;;;5005817;28;21015;-53
2021/07/09 00:21:17;;;;;;;20.90;18.93;;;19.50;99.90;;;;;;5007454;28;20906;-55
2021/07/09 00:23:44;;;;;;;22.83;20.53;;;19.50;99.90;;;;;;5001582;28;20191;-54
2021/07/09 00:26:10;;;;;;;22.07;19.87;;;19.60;99.90;;;;;;5020740;28;20190;-55
2021/07/09 00:28:36;;;;;;;24.27;21.87;;;19.60;99.90;;;;;;5003780;28;20473;-53
2021/07/09 00:31:02;;;;;;;23.93;21.43;;;19.60;99.90;;;;;;5008992;28;20482;-56
2021/07/09 00:33:27;;;;;;;24.13;21.63;;;19.70;99.90;;;;;;4999402;28;20347;-53
2021/07/09 00:35:53;;;;;;;20.23;18.43;;;19.60;99.90;;;;;;5009889;28;20762;-55
2021/07/09 00:38:18;;;;;;;22.90;20.70;;;19.60;99.90;;;;;;5008729;28;20212;-55
2021/07/09 00:40:44;;;;;;;22.10;19.80;;;19.50;99.90;;;;;;4999471;28;20657;-54
2021/07/09 00:43:10;;;;;;;22.47;19.50;;;19.50;99.90;;;;;;5006407;28;20217;-54
2021/07/09 00:45:35;;;;;;;22.27;20.07;;;19.60;99.90;;;;;;5008558;28;20556;-52
2021/07/09 00:48:01;;;;;;;22.10;19.80;;;19.60;99.90;;;;;;5009126;28;20179;-57
2021/07/09 00:50:27;;;;;;;22.00;20.00;;;19.50;99.90;;;;;;5008014;28;20701;-54
2021/07/09 00:52:53;;;;;;;21.83;19.50;;;19.50;99.90;;;;;;5008171;28;20677;-50
2021/07/09 00:55:19;;;;;;;22.43;20.23;;;19.50;99.90;;;;;;5000242;28;20201;-54
2021/07/09 00:57:48;;;;;;;20.60;18.70;;;19.40;99.90;;;;;;5008278;28;20498;-53
2021/07/09 01:00:15;;;;;;;21.30;19.20;;;19.40;99.90;;;;;;5008257;28;20426;-54
2021/07/09 01:02:41;;;;;;;21.23;19.33;;;19.40;99.90;;;;;;5007246;28;20441;-55
2021/07/09 01:05:09;;;;;;;21.60;19.60;;;19.40;99.90;;;;;;5009017;28;20423;-52
2021/07/09 01:07:35;;;;;;;21.52;19.52;;;19.40;99.90;;;;;;5007520;28;20459;-54
2021/07/09 01:10:02;;;;;;;20.20;18.37;;;19.40;99.90;;;;;;5009108;28;20218;-56
2021/07/09 01:12:28;;;;;;;21.47;19.47;;;19.40;99.90;;;;;;5008417;28;20455;-54
2021/07/09 01:14:53;;;;;;;20.33;18.43;;;19.40;99.90;;;;;;5008236;28;20445;-54
2021/07/09 01:17:20;;;;;;;21.80;19.50;;;19.40;99.90;;;;;;5009193;28;20247;-53
2021/07/09 01:19:45;;;;;;;21.60;19.40;;;19.40;99.90;;;;;;5006691;28;20191;-55
2021/07/09 01:22:11;;;;;;;21.20;19.03;;;19.50;99.90;;;;;;5003439;28;20449;-55
2021/07/09 01:24:38;;;;;;;20.20;18.30;;;19.40;99.90;;;;;;5003406;28;20661;-54
2021/07/09 01:27:05;;;;;;;21.47;19.27;;;19.50;99.90;;;;;;5020441;28;20226;-55
2021/07/09 01:29:31;;;;;;;21.23;19.10;;;19.40;99.90;;;;;;5000868;28;20442;-57
2021/07/09 01:31:58;;;;;;;22.30;19.73;;;19.40;99.90;;;;;;5008430;28;20449;-56
2021/07/09 01:34:23;;;;;;;21.80;19.33;;;19.30;99.90;;;;;;5009072;28;20517;-53
2021/07/09 01:36:49;;;;;;;22.47;20.27;;;19.30;99.90;;;;;;5005745;28;20522;-51
2021/07/09 01:39:16;;;;;;;21.43;19.30;;;19.40;99.90;;;;;;5005662;28;20245;-56
2021/07/09 01:41:42;;;;;;;21.77;19.67;;;19.40;99.90;;;;;;5009922;28;20248;-55
2021/07/09 01:44:08;;;;;;;21.20;19.13;;;19.40;99.90;;;;;;5009890;28;20439;-54
2021/07/09 01:46:35;;;;;;;20.20;18.20;;;19.40;99.90;;;;;;5005670;28;20422;-55
2021/07/09 01:49:01;;;;;;;20.63;18.63;;;19.30;99.90;;;;;;5012220;28;20476;-56
2021/07/09 01:51:27;;;;;;;21.10;17.77;;;19.30;99.90;;;;;;4996694;28;20694;-53
2021/07/09 01:53:52;;;;;;;19.80;17.60;;;19.20;99.90;;;;;;5009650;28;20434;-55
2021/07/09 01:56:18;;;;;;;20.60;18.70;;;19.10;99.90;;;;;;5012516;28;20541;-55
2021/07/09 01:58:43;;;;;;;21.13;19.10;;;19.00;99.90;;;;;;5013025;28;20708;-58
2021/07/09 02:01:09;;;;;;;21.00;18.90;;;19.00;99.90;;;;;;5023007;28;20664;-58
2021/07/09 02:03:35;;;;;;;21.10;18.97;;;19.00;99.90;;;;;;5027944;28;20196;-58
2021/07/09 02:06:01;;;;;;;20.80;18.90;;;19.00;99.90;;;;;;5031090;28;20191;-55
2021/07/09 02:08:26;;;;;;;21.53;19.50;;;19.00;99.90;;;;;;5031846;28;20450;-57
2021/07/09 02:10:52;;;;;;;20.73;18.83;;;19.00;99.90;;;;;;5032631;28;20205;-55
2021/07/09 02:13:17;;;;;;;21.57;19.47;;;19.00;99.90;;;;;;5030884;28;20182;-57
2021/07/09 02:15:45;;;;;;;22.10;19.87;;;18.90;99.90;;;;;;5032147;28;20200;-58
2021/07/09 02:18:15;;;;;;;19.70;17.90;;;19.00;99.90;;;;;;5023137;28;20640;-57
2021/07/09 02:20:42;;;;;;;20.50;18.70;;;18.90;99.90;;;;;;5032266;28;20467;-55
2021/07/09 02:23:11;;;;;;;21.00;19.10;;;18.90;99.90;;;;;;5021099;28;21361;-55
2021/07/09 02:25:37;;;;;;;20.63;18.60;;;18.90;99.90;;;;;;5027785;28;20520;-58
2021/07/09 02:28:03;;;;;;;20.17;18.37;;;19.00;99.90;;;;;;5030736;28;20448;-57
2021/07/09 02:30:30;;;;;;;21.80;19.70;;;19.00;99.90;;;;;;5030495;28;21014;-55
2021/07/09 02:32:56;;;;;;;20.50;18.67;;;19.00;99.90;;;;;;5019816;28;20441;-57
2021/07/09 02:35:24;;;;;;;22.60;19.63;;;18.90;99.90;;;;;;5026860;28;20540;-55
2021/07/09 02:37:51;;;;;;;20.77;18.87;;;19.00;99.90;;;;;;5020601;28;20477;-56
2021/07/09 02:40:19;;;;;;;21.50;19.40;;;19.00;99.90;;;;;;5031382;28;20453;-57
2021/07/09 02:42:48;;;;;;;22.00;19.90;;;18.90;99.90;;;;;;5025938;28;20920;-58
2021/07/09 02:45:14;;;;;;;21.17;19.17;;;19.00;99.90;;;;;;5031378;28;20424;-57
2021/07/09 02:47:41;;;;;;;22.80;20.60;;;19.00;99.90;;;;;;5030679;28;20438;-57
2021/07/09 02:50:09;;;;;;;21.40;19.40;;;19.00;99.90;;;;;;5023034;28;20187;-56
2021/07/09 02:52:35;;;;;;;20.93;18.83;;;19.00;99.90;;;;;;5030777;28;21066;-58
2021/07/09 02:55:03;;;;;;;21.67;19.57;;;19.00;99.90;;;;;;5029479;28;20532;-57
2021/07/09 02:57:28;;;;;;;21.30;19.40;;;19.00;99.90;;;;;;5026826;28;20284;-58
2021/07/09 02:59:54;;;;;;;21.00;19.00;;;19.00;99.90;;;;;;5031914;28;20425;-57
2021/07/09 03:02:19;;;;;;;21.53;19.47;;;19.00;99.90;;;;;;5030975;28;20186;-55
2021/07/09 03:04:45;;;;;;;21.87;19.97;;;19.00;99.90;;;;;;5012531;28;20209;-58
2021/07/09 03:07:10;;;;;;;20.90;18.90;;;19.00;99.90;;;;;;5031477;28;20559;-56
2021/07/09 03:09:36;;;;;;;19.80;18.00;;;19.00;99.90;;;;;;5009577;28;20183;-56
2021/07/09 03:12:02;;;;;;;22.07;19.77;;;18.90;99.90;;;;;;5031262;28;20190;-55
2021/07/09 03:14:27;;;;;;;20.00;18.20;;;18.90;99.90;;;;;;5030802;28;20174;-56
2021/07/09 03:16:53;;;;;;;20.87;18.97;;;18.90;99.90;;;;;;5025102;28;20229;-57
2021/07/09 03:19:18;;;;;;;19.63;17.87;;;18.90;99.90;;;;;;5030546;28;20212;-55
2021/07/09 03:21:44;;;;;;;20.70;18.70;;;18.90;99.90;;;;;;5025386;28;20200;-56
2021/07/09 03:24:09;;;;;;;17.90;16.30;;;18.90;99.90;;;;;;5029851;28;20568;-57
2021/07/09 03:26:35;;;;;;;17.87;16.23;;;19.00;99.90;;;;;;5038452;28;20607;-54
2021/07/09 03:29:01;;;;;;;17.73;15.93;;;18.90;99.90;;;;;;5010053;28;20229;-56
2021/07/09 03:31:28;;;;;;;16.40;14.90;;;18.90;99.90;;;;;;5030768;28;20193;-55
2021/07/09 03:33:54;;;;;;;15.40;14.10;;;18.80;99.90;;;;;;5030218;28;20989;-55
2021/07/09 03:36:21;;;;;;;14.30;13.10;;;18.80;99.90;;;;;;5023900;28;20430;-56
2021/07/09 03:38:48;;;;;;;11.00;10.10;;;18.80;99.90;;;;;;5030040;28;20501;-57
2021/07/09 03:41:13;;;;;;;10.63;9.73;;;18.80;99.90;;;;;;5023924;28;20496;-50
2021/07/09 03:43:39;;;;;;;8.90;8.20;;;18.70;99.90;;;;;;5030152;28;20465;-52
2021/07/09 03:46:05;;;;;;;7.90;7.30;;;18.80;99.90;;;;;;5031022;28;20186;-55
2021/07/09 03:48:30;;;;;;;9.40;8.70;;;18.80;99.90;;;;;;5030052;28;20587;-55
2021/07/09 03:50:56;;;;;;;11.13;10.23;;;18.70;99.90;;;;;;5029460;28;20190;-53
2021/07/09 03:53:21;;;;;;;11.97;11.07;;;18.80;99.90;;;;;;5029011;28;20190;-54
2021/07/09 03:55:47;;;;;;;11.33;10.40;;;18.70;99.90;;;;;;5025220;28;20656;-53
2021/07/09 03:58:12;;;;;;;12.20;11.20;;;18.70;99.90;;;;;;5038052;28;20202;-57
2021/07/09 04:00:38;;;;;;;11.83;10.87;;;18.70;99.90;;;;;;5037043;28;20194;-56
2021/07/09 04:03:04;;;;;;;12.40;11.40;;;18.70;99.90;;;;;;5030011;28;20232;-51
2021/07/09 04:05:29;;;;;;;12.23;11.33;;;18.70;99.90;;;;;;5029795;28;20633;-56
2021/07/09 04:07:55;;;;;;;12.70;11.60;;;18.70;99.90;;;;;;5029004;28;20740;-53
2021/07/09 04:10:21;;;;;;;12.40;11.40;;;18.80;99.90;;;;;;5027366;28;20206;-54
2021/07/09 04:12:47;;;;;;;11.93;11.03;;;18.80;99.90;;;;;;5030180;28;20779;-51
2021/07/09 04:15:13;;;;;;;11.83;10.93;;;18.90;99.90;;;;;;5029981;28;20196;-55
2021/07/09 04:17:39;;;;;;;12.63;11.63;;;18.80;99.90;;;;;;5021792;28;20489;-55
2021/07/09 04:20:06;;;;;;;10.80;10.00;;;18.80;99.90;;;;;;5010773;28;20183;-55
2021/07/09 04:22:32;;;;;;;11.47;10.57;;;18.90;99.90;;;;;;5010059;28;20438;-54
2021/07/09 04:24:57;;;;;;;10.97;10.17;;;18.90;99.90;;;;;;5017763;28;20436;-54
2021/07/09 04:27:23;;;;;;;11.83;10.83;;;18.90;99.90;;;;;;5026896;28;20189;-53
2021/07/09 04:29:48;;;;;;;10.87;9.97;;;18.90;99.90;;;;;;5029656;28;20340;-54
2021/07/09 04:32:14;;;;;;;11.30;10.40;;;18.90;99.90;;;;;;5024774;28;20588;-54
2021/07/09 04:34:39;;;;;;;11.33;10.43;;;19.00;99.90;;;;;;5029058;28;20183;-54
2021/07/09 04:37:11;;;;;;;11.60;10.70;;;19.00;99.90;;;;;;5029310;28;20203;-50
2021/07/09 04:39:37;;;;;;;10.80;10.00;;;19.10;99.90;;;;;;5023986;28;20539;-55
2021/07/09 04:42:06;;;;;;;11.00;10.20;;;19.10;99.90;;;;;;5029606;28;20436;-53
2021/07/09 04:44:33;;;;;;;11.50;10.50;;;19.10;99.90;;;;;;5019798;28;20800;-52
2021/07/09 04:46:59;;;;;;;11.83;10.83;;;19.10;99.90;;;;;;5027254;28;20519;-55
2021/07/09 04:49:24;;;;;;;11.00;10.10;;;19.10;99.90;;;;;;5028624;28;20519;-55
2021/07/09 04:51:50;;;;;;;11.27;10.20;;;19.10;99.90;;;;;;5020451;28;20190;-54
2021/07/09 04:54:16;;;;;;;12.23;11.10;;;19.10;99.90;;;;;;5024366;28;20197;-52
2021/07/09 04:56:42;;;;;;;12.30;11.30;;;19.10;99.90;;;;;;5026763;28;20440;-53
2021/07/09 04:59:07;;;;;;;12.20;11.20;;;19.20;99.90;;;;;;5041454;28;20219;-49
2021/07/09 05:01:33;;;;;;;11.80;10.90;;;19.20;99.90;;;;;;5026832;28;20274;-54
2021/07/09 05:03:59;;;;;;;10.70;9.90;;;19.20;99.90;;;;;;5027984;28;20206;-51
2021/07/09 05:06:24;;;;;;;11.57;10.67;;;19.20;99.90;;;;;;5028271;28;20437;-53
2021/07/09 05:08:50;;;;;;;10.70;9.80;;;19.20;99.90;;;;;;5028603;28;20209;-56
2021/07/09 05:11:15;;;;;;;11.10;10.20;;;19.20;99.90;;;;;;5026203;28;20191;-53
2021/07/09 05:13:41;;;;;;;11.30;10.30;;;19.30;99.90;;;;;;5011050;28;20195;-51
2021/07/09 05:16:07;;;;;;;11.10;10.20;;;19.30;99.90;;;;;;5015860;28;20190;-53
2021/07/09 05:18:33;;;;;;;11.17;10.27;;;19.30;99.90;;;;;;5022694;28;20220;-55
2021/07/09 05:20:59;;;;;;;11.00;10.10;;;19.30;99.90;;;;;;5028912;28;20181;-54
2021/07/09 05:23:25;;;;;;;11.13;10.33;;;19.40;99.90;;;;;;5010500;28;20421;-52
2021/07/09 05:25:50;;;;;;;10.93;10.13;;;19.40;99.90;;;;;;5017558;28;20437;-52
2021/07/09 05:28:16;;;;;;;10.63;9.70;;;19.40;99.90;;;;;;5029373;28;20178;-52
2021/07/09 05:30:41;;;;;;;11.23;10.23;;;19.40;99.90;;;;;;5028523;28;20252;-54
2021/07/09 05:33:08;;;;;;;12.10;11.00;;;19.40;99.90;;;;;;5023112;28;20183;-51
2021/07/09 05:35:36;;;;;;;10.97;9.97;;;19.40;99.90;;;;;;5028591;28;20269;-55
2021/07/09 05:38:04;;;;;;;11.70;10.80;;;19.40;99.90;;;;;;5027687;28;20460;-54
2021/07/09 05:40:30;;;;;;;10.43;9.63;;;19.40;99.90;;;;;;5024732;28;20445;-57
2021/07/09 05:42:55;;;;;;;11.73;10.80;;;19.40;99.90;;;;;;5011328;28;20201;-53
2021/07/09 05:45:21;;;;;;;12.10;11.20;;;19.50;99.90;;;;;;5020340;28;20189;-51
2021/07/09 05:47:46;;;;;;;12.20;11.20;;;19.60;99.90;;;;;;5016776;28;20203;-54
2021/07/09 05:50:14;;;;;;;12.57;11.57;;;19.50;99.90;;;;;;5027513;28;20190;-54
2021/07/09 05:52:40;;;;;;;11.80;10.80;;;19.50;99.90;;;;;;5016278;28;20214;-55
2021/07/09 05:55:06;;;;;;;12.10;11.10;;;19.40;99.90;;;;;;5029489;28;20456;-50
2021/07/09 05:57:31;;;;;;;12.17;11.27;;;19.40;99.90;;;;;;5029439;28;20193;-56
2021/07/09 05:59:58;;;;;;;12.73;11.67;;;19.40;99.90;;;;;;5008609;28;20940;-56
2021/07/09 06:02:23;;;;;;;13.07;11.90;;;19.40;99.90;;;;;;5030444;28;20195;-52
2021/07/09 06:04:49;;;;;;;12.40;11.40;;;19.50;99.90;;;;;;5027968;28;20196;-56
2021/07/09 06:07:15;;;;;;;10.80;9.90;;;19.50;99.90;;;;;;5029400;28;20183;-51
2021/07/09 06:09:40;;;;;;;11.83;10.83;;;19.40;99.90;;;;;;5028929;28;20215;-62
2021/07/09 06:12:06;;;;;;;11.47;10.23;;;19.50;99.90;;;;;;5025636;28;20199;-64
2021/07/09 06:14:32;;;;;;;11.10;10.30;;;19.50;99.90;;;;;;5024370;28;20178;-63
2021/07/09 06:16:57;;;;;;;10.57;9.77;;;19.50;99.90;;;;;;5028016;28;20893;-63
2021/07/09 06:19:23;;;;;;;11.13;10.03;;;19.50;99.90;;;;;;5028379;28;20217;-62
2021/07/09 06:21:48;;;;;;;11.20;10.30;;;19.40;99.90;;;;;;5029427;28;20242;-64
2021/07/09 06:24:14;;;;;;;11.30;10.40;;;19.40;99.90;;;;;;5029934;28;20178;-65
2021/07/09 06:26:41;;;;;;;11.20;10.30;;;19.40;99.90;;;;;;5029653;28;20251;-63
2021/07/09 06:29:06;;;;;;;11.43;10.52;;;19.30;99.90;;;;;;5033040;28;20705;-63
2021/07/09 06:31:32;;;;;;;11.87;10.87;;;19.30;99.90;;;;;;5033253;28;20266;-64
2021/07/09 06:33:58;;;;;;;11.80;10.80;;;19.30;99.90;;;;;;5033266;28;20182;-63
2021/07/09 06:36:23;;;;;;;12.57;11.47;;;19.30;99.90;;;;;;5033165;28;20225;-64
2021/07/09 06:38:49;;;;;;;12.60;11.60;;;19.30;99.90;;;;;;5033045;28;20218;-64
2021/07/09 06:41:15;;;;;;;13.50;12.37;;;19.30;99.90;;;;;;5033095;28;20191;-62
2021/07/09 06:43:40;;;;;;;12.33;11.23;;;19.30;99.90;;;;;;5033308;28;20182;-63
2021/07/09 06:46:06;;;;;;;12.40;11.30;;;19.30;99.90;;;;;;5015535;28;20195;-64
2021/07/09 06:48:31;;;;;;;11.30;10.30;;;19.30;99.90;;;;;;5032654;28;20538;-64
2021/07/09 06:50:57;;;;;;;11.87;10.80;;;19.40;99.90;;;;;;5032864;28;20682;-63
2021/07/09 06:53:23;;;;;;;10.83;9.93;;;19.50;99.90;;;;;;5030966;28;20190;-64
2021/07/09 06:55:48;;;;;;;9.97;9.17;;;19.50;99.90;;;;;;5031393;28;20199;-63
2021/07/09 06:58:14;;;;;;;10.13;9.33;;;19.50;99.90;;;;;;5020864;28;20763;-63
2021/07/09 07:00:40;;;;;;;9.33;8.63;;;19.60;99.90;;;;;;5031148;28;20236;-64
2021/07/09 07:03:06;;;;;;;9.47;8.50;;;19.70;99.90;;;;;;5031176;28;20237;-63
2021/07/09 07:05:33;;;;;;;9.17;8.37;;;19.80;99.90;;;;;;5030907;28;20773;-62
2021/07/09 07:08:12;;;;;;;8.50;7.90;;;19.90;99.90;;;;;;5030786;28;20426;-62
2021/07/09 07:10:37;;;;;;;8.13;7.43;;;20.00;99.90;;;;;;5029366;28;20203;-62
2021/07/09 07:13:03;;;;;;;8.83;7.93;;;20.10;99.90;;;;;;5031147;28;20441;-61
2021/07/09 07:15:29;;;;;;;9.73;8.83;;;20.20;99.90;;;;;;5031121;28;20197;-63
2021/07/09 07:17:54;;;;;;;9.27;8.47;;;20.20;99.90;;;;;;5025156;28;20783;-62
2021/07/09 07:20:20;;;;;;;9.00;8.20;;;20.40;99.90;;;;;;5030829;28;20193;-62
2021/07/09 07:22:45;;;;;;;10.00;9.10;;;20.50;99.90;;;;;;5030595;28;20751;-64
2021/07/09 07:25:11;;;;;;;9.67;8.77;;;20.60;99.90;;;;;;5030932;28;20208;-66
2021/07/09 07:27:36;;;;;;;10.10;9.30;;;20.70;99.90;;;;;;5025579;28;20190;-62
2021/07/09 07:30:03;;;;;;;9.90;8.90;;;20.70;99.90;;;;;;5029445;28;20196;-64
2021/07/09 07:32:28;;;;;;;11.23;10.20;;;20.70;99.90;;;;;;5030063;28;20266;-63
2021/07/09 07:34:54;;;;;;;11.20;10.20;;;20.70;99.90;;;;;;5029262;28;20277;-63
2021/07/09 07:37:20;;;;;;;10.90;9.90;;;20.80;99.90;;;;;;5029685;28;20685;-63
2021/07/09 07:39:47;;;;;;;11.47;10.27;;;20.80;99.90;;;;;;5029530;28;20186;-63
2021/07/09 07:42:12;;;;;;;11.70;10.60;;;20.90;99.90;;;;;;5012054;28;20653;-68
2021/07/09 07:44:38;;;;;;;12.40;11.20;;;20.80;99.90;;;;;;5029701;28;20471;-63
2021/07/09 07:47:03;;;;;;;11.87;10.70;;;20.80;99.90;;;;;;5029715;28;20723;-61
2021/07/09 07:49:30;;;;;;;12.10;11.00;;;20.80;99.90;;;;;;5029365;28;20268;-64
2021/07/09 07:51:55;;;;;;;11.80;10.60;;;20.80;99.90;;;;;;5029427;28;20292;-63
2021/07/09 07:54:21;;;;;;;11.97;10.87;;;20.80;99.90;;;;;;5029672;28;20507;-63
2021/07/09 07:56:46;;;;;;;11.63;10.53;;;20.90;99.90;;;;;;5028936;28;20794;-63
2021/07/09 07:59:12;;;;;;;11.23;10.13;;;21.10;99.90;;;;;;5036298;28;20206;-64
2021/07/09 08:01:37;;;;;;;9.43;8.63;;;21.40;99.90;;;;;;5029349;28;20217;-63
2021/07/09 08:04:04;;;;;;;10.60;9.50;;;21.60;99.90;;;;;;5028779;28;20182;-63
2021/07/09 08:06:31;;;;;;;9.33;8.53;;;21.80;99.90;;;;;;5028852;28;20190;-63
2021/07/09 08:08:56;;;;;;;9.02;8.20;;;22.00;99.90;;;;;;5028273;28;20434;-63
2021/07/09 08:11:22;;;;;;;9.23;8.43;;;22.30;99.90;;;;;;5028678;28;20214;-63
2021/07/09 08:13:48;;;;;;;7.90;7.30;;;22.80;99.90;;;;;;5028583;28;20540;-64
2021/07/09 08:16:14;;;;;;;8.00;7.30;;;23.20;88.20;;;;;;5028668;28;20191;-64
2021/07/09 08:18:39;;;;;;;8.03;7.43;;;23.50;69.80;;;;;;5028268;28;20481;-62
2021/07/09 08:21:05;;;;;;;7.87;7.10;;;23.90;56.60;;;;;;5022938;28;20183;-63
2021/07/09 08:23:32;;;;;;;8.07;7.47;;;24.30;48.40;;;;;;5010815;28;20308;-63
2021/07/09 08:25:58;;;;;;;7.57;6.97;;;24.50;22.70;;;;;;5026930;28;20182;-63
2021/07/09 08:28:25;;;;;;;8.40;7.53;;;24.70;41.60;;;;;;5028574;28;20795;-63
2021/07/09 08:30:51;;;;;;;7.63;7.03;;;24.90;3.30;;;;;;5029261;28;20432;-64
2021/07/09 08:33:16;;;;;;;7.57;6.97;;;25.00;1.00;;;;;;5026032;28;20867;-63
2021/07/09 08:35:42;;;;;;;7.93;7.23;;;25.00;1.00;;;;;;5029249;28;20321;-62
2021/07/09 08:38:08;;;;;;;7.90;7.13;;;24.70;3.60;;;;;;5028833;28;20203;-65
2021/07/09 08:40:34;;;;;;;7.87;7.27;;;24.50;9.10;;;;;;5028483;28;20193;-63
2021/07/09 08:43:01;;;;;;;6.87;6.37;;;24.30;18.70;;;;;;5029294;28;20240;-63
2021/07/09 08:45:26;;;;;;;8.07;7.47;;;24.00;19.70;;;;;;5028711;28;20437;-63
2021/07/09 08:47:54;;;;;;;7.67;7.10;;;23.90;19.70;;;;;;5027385;28;20528;-63
2021/07/09 08:50:20;;;;;;;7.67;7.07;;;23.60;25.50;;;;;;5024915;28;20276;-65
2021/07/09 08:52:46;;;;;;;7.93;7.33;;;23.70;43.80;;;;;;5028067;28;20555;-55
2021/07/09 08:55:13;;;;;;;7.30;6.60;;;23.70;39.20;;;;;;5026973;28;20191;-56
2021/07/09 08:57:43;;;;;;;8.37;7.77;;;23.60;48.90;;;;;;5029037;28;20412;-55
2021/07/09 09:00:34;;;;;;;7.38;6.88;;;23.90;44.10;;;;;;5009868;28;20436;-56
2021/07/09 09:03:09;;;;;;;7.60;6.83;;;24.00;34.80;;;;;;5028378;28;20264;-53
2021/07/09 09:05:34;;;;;;;7.50;6.80;;;23.90;30.00;;;;;;5027827;28;20485;-56
2021/07/09 09:08:02;;;;;;;7.00;6.50;;;23.80;42.30;;;;;;5026334;28;20524;-55
2021/07/09 09:10:36;;;;;;;7.63;6.67;;;23.60;57.30;;;;;;5028501;28;20189;-51
2021/07/09 09:13:24;;;;;;;7.63;6.93;;;23.60;31.70;;;;;;5028551;28;20485;-53
2021/07/09 09:16:10;;;;;;;7.20;6.70;;;23.70;40.10;;;;;;5028463;28;21218;-54
2021/07/09 09:18:37;;;;;;;7.90;7.30;;;23.80;26.90;;;;;;5025830;28;21092;-56
2021/07/09 09:21:11;;;;;;;8.17;7.47;;;23.80;36.50;;;;;;5027667;28;20420;-54
2021/07/09 09:23:57;;;;;;;7.20;6.60;;;23.80;47.80;;;;;;5028064;28;20457;-51
2021/07/09 09:26:46;;;;;;;6.37;5.87;;;23.90;54.60;;;;;;5026485;28;20879;-52
2021/07/09 09:29:36;;;;;;;5.63;5.23;;;24.30;41.00;;;;;;5018856;28;20438;-54
2021/07/09 09:32:06;;;;;;;4.93;4.63;;;24.50;28.60;;;;;;5009997;28;20437;-56
2021/07/09 09:34:45;;;;;;;5.50;5.00;;;24.80;1.10;;;;;;5026673;28;20445;-56
2021/07/09 09:37:19;;;;;;;5.70;5.30;;;25.10;1.00;;;;;;5010180;28;20436;-57
2021/07/09 09:39:46;;;;;;;6.20;5.80;;;25.30;1.00;;;;;;5023008;28;20458;-55
2021/07/09 09:42:21;;;;;;;6.40;6.00;;;25.70;1.00;;;;;;5023865;28;20459;-54
2021/07/09 09:44:49;;;;;;;5.80;5.40;;;26.20;1.00;;;;;;5026221;28;20421;-55
2021/07/09 09:47:17;;;;;;;7.20;6.70;;;26.80;1.00;;;;;;5027597;28;20425;-64
2021/07/09 09:49:45;;;;;;;7.20;6.70;;;27.10;1.00;;;;;;5027496;28;20425;-64
2021/07/09 09:52:11;;;;;;;7.20;6.70;;;27.30;1.00;;;;;;5028166;28;20189;-64
2021/07/09 09:54:37;;;;;;;7.67;7.13;;;27.80;1.00;;;;;;5025474;28;20694;-65
2021/07/09 09:57:06;;;;;;;9.03;8.33;;;28.40;1.00;;;;;;5008319;28;20453;-63
2021/07/09 09:59:32;;;;;;;9.17;8.47;;;28.70;99.90;;;;;;5025529;28;20568;-63
2021/07/09 10:02:03;;;;;;;9.00;8.30;;;28.70;99.90;;;;;;5023591;28;20442;-64
2021/07/09 10:04:30;;;;;;;9.80;9.10;;;28.50;99.90;;;;;;5031445;28;20424;-63
2021/07/09 10:06:57;;;;;;;9.73;9.13;;;27.90;1.00;;;;;;5031604;28;20516;-63
2021/07/09 10:09:25;;;;;;;9.33;8.63;;;27.70;1.00;;;;;;5030662;28;20427;-63
2021/07/09 10:11:51;;;;;;;9.70;9.00;;;27.60;1.00;;;;;;5031454;28;20860;-64
2021/07/09 10:14:19;;;;;;;8.30;7.80;;;28.30;1.00;;;;;;5030329;28;21155;-64
2021/07/09 10:16:47;;;;;;;9.33;8.63;;;29.00;1.00;;;;;;5030931;28;20230;-63
2021/07/09 10:19:23;;;;;;;8.97;8.43;;;30.20;1.00;;;;;;5030445;28;20476;-70
2021/07/09 10:21:48;;;;;;;9.13;8.63;;;31.20;1.00;;;;;;5029424;28;20779;-64
2021/07/09 10:24:17;;;;;;;9.47;8.83;;;31.50;99.90;;;;;;5029699;28;20409;-64
2021/07/09 10:26:48;;;;;;;8.93;8.43;;;31.30;99.90;;;;;;5029767;28;20221;-64
2021/07/09 10:29:16;;;;;;;9.87;9.27;;;31.80;99.90;;;;;;5029353;28;20443;-64
2021/07/09 10:31:44;;;;;;;9.47;8.93;;;31.50;99.90;;;;;;5029861;28;20408;-64
2021/07/09 10:34:30;;;;;;;9.73;9.13;;;31.70;98.60;;;;;;5029657;28;20421;-66
2021/07/09 10:37:01;;;;;;;9.20;8.70;;;31.70;99.90;;;;;;5031949;28;20423;-64
2021/07/09 10:39:31;;;;;;;9.83;9.23;;;32.00;1.00;;;;;;5028985;28;20214;-62
2021/07/09 10:42:24;;;;;;;9.50;8.80;;;31.80;1.00;;;;;;5026443;28;20418;-63
2021/07/09 10:44:58;;;;;;;9.57;8.97;;;32.10;34.30;;;;;;5029512;28;20418;-64
2021/07/09 10:47:36;;;;;;;8.50;8.07;;;31.70;86.90;;;;;;5029797;28;20425;-64
2021/07/09 10:50:03;;;;;;;8.80;8.30;;;30.70;82.50;;;;;;5030501;28;20712;-64
2021/07/09 10:52:44;;;;;;;8.63;8.00;;;30.50;88.20;;;;;;5024321;28;20425;-63
2021/07/09 10:55:25;;;;;;;8.37;7.97;;;31.50;1.00;;;;;;5029745;28;20188;-68
2021/07/09 10:58:17;;;;;;;8.17;7.77;;;32.50;79.10;;;;;;5030015;28;20484;-65
2021/07/09 11:00:49;;;;;;;9.17;8.67;;;32.80;77.40;;;;;;5030066;28;20405;-64
2021/07/09 11:03:37;;;;;;;8.40;7.97;;;32.10;73.60;;;;;;5028870;28;20460;-63
2021/07/09 11:06:22;;;;;;;7.80;7.40;;;31.60;72.70;;;;;;5030035;28;20421;-64
2021/07/09 11:09:04;;;;;;;8.57;8.07;;;30.70;76.50;;;;;;5028533;28;20431;-64
2021/07/09 11:11:31;;;;;;;8.50;7.95;;;29.50;81.00;;;;;;5030266;28;20429;-64
2021/07/09 11:14:04;;;;;;;7.70;7.10;;;28.50;99.90;;;;;;5029450;28;20273;-64
2021/07/09 11:17:00;;;;;;;7.60;7.10;;;27.50;99.90;;;;;;5030129;28;20930;-64
2021/07/09 11:19:33;;;;;;;7.30;6.80;;;26.80;99.90;;;;;;5028358;28;20476;-65
2021/07/09 11:22:11;;;;;;;7.80;7.30;;;26.90;99.90;;;;;;5030578;28;20176;-65
2021/07/09 11:24:53;;;;;;;7.50;7.00;;;26.90;99.90;;;;;;5030256;28;20445;-65
2021/07/09 11:27:21;;;;;;;7.05;6.55;;;26.50;99.90;;;;;;5029754;28;20413;-65
2021/07/09 11:29:47;;;;;;;6.70;6.10;;;26.50;99.90;;;;;;5029952;28;20722;-64
2021/07/09 11:32:22;;;;;;;6.63;6.13;;;26.50;99.90;;;;;;5029702;28;20515;-66
2021/07/09 11:34:50;;;;;;;5.77;5.43;;;26.70;99.90;;;;;;5031723;28;20465;-65
2021/07/09 11:37:24;;;;;;;5.87;5.47;;;27.30;99.90;;;;;;5030833;28;20429;-65
2021/07/09 11:39:56;;;;;;;5.60;5.30;;;28.50;99.90;;;;;;5023143;28;20626;-64
2021/07/09 11:42:26;;;;;;;5.63;5.32;;;28.90;59.10;;;;;;5029538;28;20440;-66
2021/07/09 11:44:55;;;;;;;5.67;5.37;;;29.40;99.90;;;;;;5029956;28;20209;-65
2021/07/09 11:47:32;;;;;;;5.80;5.50;;;29.20;1.00;;;;;;5029323;28;20476;-65
2021/07/09 11:50:01;;;;;;;6.47;5.97;;;28.00;99.90;;;;;;5030227;28;20448;-63
2021/07/09 11:52:29;;;;;;;5.53;5.23;;;27.20;1.00;;;;;;5011145;28;20539;-65
2021/07/09 11:54:57;;;;;;;5.17;4.87;;;26.70;99.90;;;;;;5029997;28;20972;-65
2021/07/09 11:57:22;;;;;;;4.60;4.40;;;26.30;1.00;;;;;;5029514;28;20422;-63
2021/07/09 11:59:49;;;;;;;4.60;4.30;;;26.00;99.90;;;;;;5028564;28;20491;-65
2021/07/09 12:02:16;;;;;;;4.57;4.10;;;25.70;99.90;;;;;;5028894;28;20181;-64
2021/07/09 12:04:50;;;;;;;4.10;3.90;;;25.70;99.90;;;;;;5009868;28;20932;-64
2021/07/09 12:07:20;;;;;;;4.45;4.15;;;25.50;99.90;;;;;;5029217;28;20421;-63
2021/07/09 12:09:53;;;;;;;4.30;4.10;;;25.50;1.00;;;;;;5029480;28;20221;-64
2021/07/09 12:12:19;;;;;;;3.73;3.53;;;25.60;99.90;;;;;;5027850;28;20449;-63
2021/07/09 12:14:55;;;;;;;4.20;3.90;;;25.90;99.90;;;;;;5028256;28;20426;-62
2021/07/09 12:17:22;;;;;;;3.80;3.60;;;26.90;1.00;;;;;;5029070;28;20483;-63
2021/07/09 12:19:58;;;;;;;3.57;3.47;;;28.00;99.90;;;;;;5027282;28;21132;-65
2021/07/09 12:22:26;;;;;;;3.80;3.60;;;28.90;1.00;;;;;;5028976;28;20424;-64
2021/07/09 12:24:53;;;;;;;3.83;3.63;;;29.50;1.00;;;;;;5029167;28;20475;-64
2021/07/09 12:27:19;;;;;;;4.37;4.17;;;29.60;99.90;;;;;;5015130;28;20425;-65
2021/07/09 12:29:45;;;;;;;4.40;4.20;;;29.30;1.00;;;;;;5029010;28;20425;-65
2021/07/09 12:32:11;;;;;;;5.00;4.73;;;29.20;99.90;;;;;;5027288;28;20436;-64
2021/07/09 12:34:36;;;;;;;4.68;4.47;;;28.80;99.90;;;;;;5021799;28;20941;-65
2021/07/09 12:37:03;;;;;;;6.27;5.70;;;28.70;1.00;;;;;;5028611;28;20241;-64
2021/07/09 12:39:29;;;;;;;4.70;4.40;;;28.60;1.00;;;;;;5028895;28;20541;-64